Terminal Aerodrome Forecast
Issued by NWS Greer, SC

Home | Current Version | Previous Version | Text Only | Print | Product List | Glossary On
Versions: 1 2 3 4 5 6 7 8 9 10 11 12 13 14 15 16 17
000
FTUS42 KGSP 222322
TAFAVL
TAF
KAVL 222322Z 2300/2324 20006KT P6SM FEW060
     FM230300 VRB03KT P6SM SCT200
     FM230700 VRB03KT 3SM BR SCT003 BKN150
      TEMPO 2308/2312 1SM BR BKN003
     FM231300 32005KT P6SM VCSH BKN035
     FM231500 33009KT P6SM -SHRA BKN040
      TEMPO 2316/2320 3SM -TSRA BKN030CB
     FM232000 34014G22KT P6SM VCSH BKN040=

USA.gov is the U.S. government's official web portal to all federal, state and local government web resources and services.